Time;durP1;ratioP1;P1;durP2;ratioP2;P2;SDS_P1;SDS_P2;PMS_P1;PMS_P2;Temp;Humidity;BMP_temperature;BMP_pressure;BME280_temperature;BME280_humidity;BME280_pressure;Samples;Min_cycle;Max_cycle;Signal;HPM_P1;HPM_P2
2023/05/18 00:01:13;;;;;;;12.00;3.75;;;9.20;99.90;;;;;;5012829;28;20109;-50
2023/05/18 00:03:40;;;;;;;15.52;2.58;;;9.20;99.90;;;;;;5012156;28;20030;-49
2023/05/18 00:06:06;;;;;;;8.77;2.55;;;9.10;99.90;;;;;;5013164;28;20053;-50
2023/05/18 00:08:35;;;;;;;13.50;2.78;;;9.10;99.90;;;;;;5011467;28;20033;-50
2023/05/18 00:11:02;;;;;;;10.70;2.92;;;9.00;99.90;;;;;;5012988;28;20037;-53
2023/05/18 00:13:28;;;;;;;16.05;3.38;;;9.00;99.90;;;;;;5011359;28;20486;-49
2023/05/18 00:15:53;;;;;;;9.82;3.80;;;8.90;99.90;;;;;;5012710;28;20029;-49
2023/05/18 00:18:22;;;;;;;9.38;2.92;;;8.90;99.90;;;;;;5012361;28;20045;-48
2023/05/18 00:21:00;;;;;;;8.63;2.45;;;8.80;99.90;;;;;;5012887;28;20026;-49
2023/05/18 00:23:31;;;;;;;11.18;2.90;;;8.80;99.90;;;;;;5012497;28;20022;-50
2023/05/18 00:25:58;;;;;;;8.40;3.00;;;8.80;99.90;;;;;;5012632;28;20026;-48
2023/05/18 00:28:24;;;;;;;7.10;2.65;;;8.70;99.90;;;;;;5012097;28;20026;-53
2023/05/18 00:30:51;;;;;;;13.07;3.60;;;8.70;99.90;;;;;;5012703;28;20050;-51
2023/05/18 00:33:17;;;;;;;10.75;3.55;;;8.70;99.90;;;;;;5011428;28;20052;-49
2023/05/18 00:35:42;;;;;;;9.48;2.33;;;8.70;99.90;;;;;;5010115;28;20030;-50
2023/05/18 00:38:08;;;;;;;11.00;3.40;;;8.70;99.90;;;;;;5012113;28;20030;-51
2023/05/18 00:40:33;;;;;;;5.43;2.60;;;8.60;99.90;;;;;;5012436;28;20277;-51
2023/05/18 00:43:00;;;;;;;9.43;3.42;;;8.60;99.90;;;;;;5012044;28;20114;-50
2023/05/18 00:45:25;;;;;;;10.45;2.90;;;8.60;99.90;;;;;;5012310;28;20033;-50
2023/05/18 00:47:51;;;;;;;7.38;2.60;;;8.60;99.90;;;;;;5011665;28;20030;-49
2023/05/18 00:50:17;;;;;;;11.23;2.63;;;8.60;99.90;;;;;;5011012;28;20030;-54
2023/05/18 00:52:43;;;;;;;5.13;2.47;;;8.60;99.90;;;;;;5011928;28;20076;-48
2023/05/18 00:55:11;;;;;;;11.70;3.05;;;8.50;99.90;;;;;;5012182;28;20053;-50
2023/05/18 00:57:37;;;;;;;11.32;2.95;;;8.50;99.90;;;;;;5012496;28;20097;-52
2023/05/18 01:00:06;;;;;;;4.38;2.78;;;8.50;99.90;;;;;;5011763;28;20109;-48
2023/05/18 01:02:31;;;;;;;11.43;3.22;;;8.50;99.90;;;;;;5011774;28;20037;-52
2023/05/18 01:04:59;;;;;;;13.27;3.15;;;8.40;99.90;;;;;;5011944;28;20402;-51
2023/05/18 01:07:25;;;;;;;8.70;2.85;;;8.40;99.90;;;;;;5010880;28;20022;-49
2023/05/18 01:10:43;;;;;;;9.48;2.72;;;8.40;99.90;;;;;;5011403;28;20057;-50
2023/05/18 01:13:14;;;;;;;10.23;2.97;;;8.30;99.90;;;;;;5007842;28;20374;-50
2023/05/18 01:15:43;;;;;;;8.85;2.90;;;8.30;99.90;;;;;;5011925;28;20079;-45
2023/05/18 01:18:34;;;;;;;10.93;3.17;;;8.30;99.90;;;;;;5011349;28;20036;-48
2023/05/18 01:21:41;;;;;;;11.20;3.03;;;8.20;99.90;;;;;;5010546;28;20080;-48
2023/05/18 01:24:33;;;;;;;14.90;3.25;;;8.20;99.90;;;;;;5011992;28;20097;-49
2023/05/18 01:27:00;;;;;;;10.20;3.53;;;8.20;99.90;;;;;;5008489;28;20184;-47
2023/05/18 01:29:28;;;;;;;8.68;2.83;;;8.20;99.90;;;;;;5011369;28;20018;-51
2023/05/18 01:31:53;;;;;;;9.88;3.53;;;8.20;99.90;;;;;;5011270;28;20029;-47
2023/05/18 01:34:19;;;;;;;8.80;3.13;;;8.10;99.90;;;;;;5011746;28;20090;-48
2023/05/18 01:36:44;;;;;;;9.00;2.75;;;8.10;99.90;;;;;;5011803;28;20022;-49
2023/05/18 01:39:10;;;;;;;15.32;3.85;;;8.10;99.90;;;;;;5011357;28;20077;-51
2023/05/18 01:41:40;;;;;;;9.65;3.83;;;8.10;99.90;;;;;;5011702;28;20493;-47
2023/05/18 01:44:23;;;;;;;10.38;3.47;;;8.10;99.90;;;;;;5011583;28;20084;-46
2023/05/18 01:47:11;;;;;;;13.75;3.63;;;8.00;99.90;;;;;;5012109;28;20045;-52
2023/05/18 01:49:50;;;;;;;13.60;3.10;;;8.00;99.90;;;;;;5015131;28;20062;-48
2023/05/18 01:52:20;;;;;;;6.85;2.55;;;8.00;99.90;;;;;;5015503;28;20022;-48
2023/05/18 01:54:51;;;;;;;13.02;3.85;;;7.90;99.90;;;;;;5015503;28;20025;-50
2023/05/18 01:57:19;;;;;;;8.02;3.00;;;7.90;99.90;;;;;;5015376;28;20025;-48
2023/05/18 01:59:45;;;;;;;9.00;2.88;;;7.90;99.90;;;;;;5015129;28;20126;-45
2023/05/18 02:02:10;;;;;;;18.05;4.00;;;7.90;99.90;;;;;;5015222;28;20524;-47
2023/05/18 02:04:36;;;;;;;13.18;3.45;;;7.80;99.90;;;;;;5015304;28;20033;-48
2023/05/18 02:07:02;;;;;;;9.75;2.65;;;7.90;99.90;;;;;;5014153;28;20029;-51
2023/05/18 02:09:28;;;;;;;6.57;3.42;;;7.90;99.90;;;;;;5014732;28;20061;-47
2023/05/18 02:11:53;;;;;;;17.73;2.97;;;7.90;99.90;;;;;;5014867;28;20544;-48
2023/05/18 02:14:18;;;;;;;7.07;2.45;;;7.90;99.90;;;;;;5015059;28;20441;-49
2023/05/18 02:16:45;;;;;;;7.75;2.50;;;7.80;99.90;;;;;;5015159;28;20033;-47
2023/05/18 02:19:14;;;;;;;11.60;2.65;;;7.90;99.90;;;;;;5014414;28;20045;-47
2023/05/18 02:21:42;;;;;;;7.22;2.25;;;7.90;99.90;;;;;;5013711;28;20033;-47
2023/05/18 02:24:07;;;;;;;6.75;3.42;;;7.80;99.90;;;;;;5014958;28;20025;-47
2023/05/18 02:26:33;;;;;;;9.82;3.00;;;7.80;99.90;;;;;;5014823;28;20516;-48
2023/05/18 02:28:58;;;;;;;13.35;3.25;;;7.80;99.90;;;;;;5014408;28;20040;-47
2023/05/18 02:31:26;;;;;;;9.23;2.97;;;7.80;99.90;;;;;;5014708;28;20022;-48
2023/05/18 02:33:52;;;;;;;9.65;2.88;;;7.70;99.90;;;;;;5014759;28;20064;-50
2023/05/18 02:36:17;;;;;;;11.90;3.10;;;7.80;99.90;;;;;;5013723;28;20022;-48
2023/05/18 02:38:43;;;;;;;6.70;3.65;;;7.70;99.90;;;;;;5013086;28;20113;-46
2023/05/18 02:41:09;;;;;;;7.95;2.85;;;7.70;99.90;;;;;;5014747;28;20485;-52
2023/05/18 02:43:35;;;;;;;7.10;3.00;;;7.70;99.90;;;;;;5014642;28;20524;-52
2023/05/18 02:46:01;;;;;;;6.65;2.85;;;7.60;99.90;;;;;;5014527;28;20045;-53
2023/05/18 02:48:27;;;;;;;5.30;2.72;;;7.60;99.90;;;;;;5014010;28;20504;-47
2023/05/18 02:50:53;;;;;;;10.35;3.42;;;7.70;99.90;;;;;;5013205;28;20061;-51
2023/05/18 02:53:20;;;;;;;12.43;4.32;;;7.60;99.90;;;;;;5014407;28;20072;-47
2023/05/18 02:55:47;;;;;;;10.20;3.05;;;7.60;99.90;;;;;;5013228;28;20022;-48
2023/05/18 02:58:13;;;;;;;13.70;3.75;;;7.60;99.90;;;;;;5013226;28;20105;-49
2023/05/18 03:00:40;;;;;;;16.10;3.50;;;7.60;99.90;;;;;;5014354;28;20113;-50
2023/05/18 03:03:05;;;;;;;11.35;3.28;;;7.50;99.90;;;;;;5014198;28;20117;-51
2023/05/18 03:05:31;;;;;;;5.28;2.92;;;7.50;99.90;;;;;;5014204;28;20471;-52
2023/05/18 03:07:57;;;;;;;7.65;2.70;;;7.50;99.90;;;;;;5012644;28;20451;-49
2023/05/18 03:10:23;;;;;;;7.35;2.38;;;7.50;99.90;;;;;;5014374;28;20052;-51
2023/05/18 03:12:48;;;;;;;6.30;3.03;;;7.50;99.90;;;;;;5013725;28;20068;-47
2023/05/18 03:15:15;;;;;;;10.18;2.58;;;7.50;99.90;;;;;;5014540;28;20058;-50
2023/05/18 03:17:41;;;;;;;8.38;2.67;;;7.50;99.90;;;;;;5013932;28;20037;-50
2023/05/18 03:20:09;;;;;;;10.30;4.32;;;7.50;99.90;;;;;;5013894;28;20429;-48
2023/05/18 03:22:35;;;;;;;10.45;2.65;;;7.50;99.90;;;;;;5013686;28;20018;-48
2023/05/18 03:25:01;;;;;;;9.10;2.85;;;7.50;99.90;;;;;;5013978;28;20041;-49
2023/05/18 03:27:26;;;;;;;7.75;3.30;;;7.50;99.90;;;;;;5013684;28;20387;-49
2023/05/18 03:29:52;;;;;;;8.57;2.63;;;7.40;99.90;;;;;;5012370;28;20036;-48
2023/05/18 03:32:18;;;;;;;9.13;3.67;;;7.40;99.90;;;;;;5013317;28;20021;-48
2023/05/18 03:34:46;;;;;;;10.63;3.20;;;7.50;99.90;;;;;;5013680;28;20026;-51
2023/05/18 03:37:12;;;;;;;10.73;3.03;;;7.40;99.90;;;;;;5013681;28;20022;-52
2023/05/18 03:39:38;;;;;;;10.82;2.80;;;7.40;99.90;;;;;;5013073;28;20113;-51
2023/05/18 03:42:03;;;;;;;4.40;2.38;;;7.40;99.90;;;;;;5013389;28;20144;-49
2023/05/18 03:44:29;;;;;;;13.32;2.63;;;7.40;99.90;;;;;;5013194;28;20113;-49
2023/05/18 03:46:55;;;;;;;8.52;3.15;;;7.40;99.90;;;;;;5013833;28;20101;-51
2023/05/18 03:49:20;;;;;;;12.57;2.97;;;7.40;99.90;;;;;;5012893;28;20033;-50
2023/05/18 03:51:46;;;;;;;9.18;2.53;;;7.30;99.90;;;;;;5013070;28;20026;-51
2023/05/18 03:54:13;;;;;;;6.05;2.42;;;7.30;99.90;;;;;;5013368;28;20018;-51
2023/05/18 03:56:38;;;;;;;4.63;2.70;;;7.30;99.90;;;;;;5013402;28;20449;-50
2023/05/18 03:59:05;;;;;;;9.52;3.10;;;7.30;99.90;;;;;;5012775;28;20030;-49
2023/05/18 04:01:31;;;;;;;8.45;2.88;;;7.30;99.90;;;;;;5012764;28;20034;-49
2023/05/18 04:03:57;;;;;;;11.73;2.70;;;7.30;99.90;;;;;;5013020;28;20028;-48
2023/05/18 04:06:24;;;;;;;9.05;3.10;;;7.30;99.90;;;;;;5012026;28;20093;-47
2023/05/18 04:08:53;;;;;;;10.80;3.10;;;7.30;99.90;;;;;;5011393;28;20088;-48
2023/05/18 04:11:20;;;;;;;11.90;2.60;;;7.30;99.90;;;;;;5012733;28;20394;-51
2023/05/18 04:13:46;;;;;;;9.02;2.75;;;7.30;99.90;;;;;;5013082;28;20018;-51
2023/05/18 04:16:12;;;;;;;9.10;3.00;;;7.30;99.90;;;;;;5012950;28;20117;-49
2023/05/18 04:18:39;;;;;;;8.75;2.95;;;7.30;99.90;;;;;;5012658;28;20095;-50
2023/05/18 04:21:05;;;;;;;18.52;3.38;;;7.30;99.90;;;;;;5012696;28;20041;-51
2023/05/18 04:23:32;;;;;;;6.53;2.78;;;7.40;99.90;;;;;;5012393;28;20021;-52
2023/05/18 04:25:58;;;;;;;7.90;2.88;;;7.40;99.90;;;;;;5012686;28;20018;-50
2023/05/18 04:28:24;;;;;;;5.28;2.80;;;7.50;99.90;;;;;;5012323;28;20030;-46
2023/05/18 04:30:50;;;;;;;5.85;2.67;;;7.50;99.90;;;;;;5012651;28;20018;-49
2023/05/18 04:33:16;;;;;;;13.90;3.78;;;7.50;99.90;;;;;;5012299;28;20026;-52
2023/05/18 04:35:42;;;;;;;13.85;3.15;;;7.60;99.90;;;;;;5012582;28;20028;-49
2023/05/18 04:38:07;;;;;;;6.28;2.80;;;7.70;99.90;;;;;;5011015;28;20018;-48
2023/05/18 04:40:33;;;;;;;6.18;2.67;;;7.80;99.90;;;;;;5012503;28;20072;-47
2023/05/18 04:42:59;;;;;;;7.15;2.67;;;7.90;99.90;;;;;;5012255;28;20036;-47
2023/05/18 04:45:25;;;;;;;23.63;4.35;;;8.00;99.90;;;;;;5012582;28;20026;-47
2023/05/18 04:47:53;;;;;;;13.65;4.32;;;8.20;99.90;;;;;;5010870;28;20029;-53
2023/05/18 04:50:20;;;;;;;8.30;3.38;;;8.60;99.90;;;;;;5012342;28;20022;-49
2023/05/18 04:52:47;;;;;;;5.90;2.55;;;9.10;99.90;;;;;;5010619;28;20033;-51
2023/05/18 04:55:26;;;;;;;10.07;2.70;;;9.60;99.90;;;;;;5012251;28;20033;-50
2023/05/18 04:57:55;;;;;;;7.45;2.28;;;10.00;99.90;;;;;;5011832;28;20025;-48
2023/05/18 05:00:22;;;;;;;12.75;2.40;;;10.20;99.90;;;;;;5012275;28;20026;-47
2023/05/18 05:02:48;;;;;;;9.65;2.80;;;10.60;99.90;;;;;;5011820;28;20026;-51
2023/05/18 05:05:14;;;;;;;9.77;3.10;;;10.80;99.90;;;;;;5011854;28;20034;-49
2023/05/18 05:07:39;;;;;;;8.35;3.47;;;11.10;99.90;;;;;;5011001;28;20379;-49
2023/05/18 05:10:06;;;;;;;9.20;2.33;;;11.20;99.90;;;;;;5011648;28;20022;-48
2023/05/18 05:12:31;;;;;;;7.40;2.28;;;11.40;99.70;;;;;;5012124;28;20524;-48
2023/05/18 05:14:56;;;;;;;6.63;2.33;;;11.70;99.30;;;;;;5012155;28;20113;-51
2023/05/18 05:17:23;;;;;;;7.32;2.53;;;11.80;99.00;;;;;;5010649;28;20061;-49
2023/05/18 05:19:49;;;;;;;9.10;2.20;;;12.00;98.80;;;;;;5012361;28;20074;-49
2023/05/18 05:22:15;;;;;;;10.88;2.97;;;12.30;98.30;;;;;;5010984;28;20446;-48
2023/05/18 05:24:40;;;;;;;10.00;2.28;;;12.40;97.80;;;;;;5011812;28;20025;-49
2023/05/18 05:27:06;;;;;;;7.25;2.30;;;12.70;97.70;;;;;;5011812;28;20037;-48
2023/05/18 05:29:31;;;;;;;6.20;1.90;;;12.80;97.30;;;;;;5011403;28;20026;-47
2023/05/18 05:31:56;;;;;;;8.55;2.38;;;13.00;96.90;;;;;;5011422;28;20109;-47
2023/05/18 05:34:22;;;;;;;5.30;2.13;;;13.40;96.50;;;;;;5011739;28;20127;-47
2023/05/18 05:36:47;;;;;;;10.43;2.47;;;13.30;95.90;;;;;;5011817;28;20033;-51
2023/05/18 05:39:13;;;;;;;10.45;2.60;;;13.20;96.10;;;;;;5011158;28;20034;-49
2023/05/18 05:41:39;;;;;;;14.43;3.08;;;13.40;96.50;;;;;;5011425;28;20026;-54
2023/05/18 05:44:04;;;;;;;8.45;2.70;;;13.60;95.80;;;;;;5011602;28;20441;-47
2023/05/18 05:46:29;;;;;;;7.53;2.50;;;14.20;95.00;;;;;;5011998;28;20032;-50
2023/05/18 05:48:55;;;;;;;11.95;2.38;;;14.60;94.20;;;;;;5011125;28;20034;-48
2023/05/18 05:51:20;;;;;;;6.15;1.90;;;14.70;94.20;;;;;;5008926;28;20038;-50
2023/05/18 05:53:48;;;;;;;6.93;1.85;;;14.90;93.30;;;;;;5011894;28;20033;-48
2023/05/18 05:56:13;;;;;;;7.80;2.83;;;15.00;93.30;;;;;;5011395;28;20105;-47
2023/05/18 05:58:40;;;;;;;9.82;1.67;;;15.00;93.10;;;;;;5009876;28;20469;-48
2023/05/18 06:01:07;;;;;;;4.95;1.88;;;15.40;93.20;;;;;;5011455;28;20025;-49
2023/05/18 06:03:32;;;;;;;7.05;2.20;;;15.20;91.90;;;;;;5011137;28;20022;-52
2023/05/18 06:05:58;;;;;;;7.97;2.28;;;15.20;92.20;;;;;;5010053;28;20029;-51
2023/05/18 06:08:24;;;;;;;7.20;2.25;;;15.10;92.30;;;;;;5009886;28;20022;-49
2023/05/18 06:10:50;;;;;;;11.20;2.50;;;14.90;92.70;;;;;;5011327;28;20014;-48
2023/05/18 06:13:15;;;;;;;7.65;1.90;;;14.90;92.30;;;;;;5011132;28;20022;-47
2023/05/18 06:15:41;;;;;;;6.03;1.85;;;14.60;92.60;;;;;;5011220;28;20026;-51
2023/05/18 06:18:07;;;;;;;7.03;1.98;;;14.80;92.30;;;;;;5010814;28;20157;-46
2023/05/18 06:20:32;;;;;;;4.55;2.20;;;15.10;92.30;;;;;;5010030;28;20112;-47
2023/05/18 06:22:58;;;;;;;5.80;2.40;;;15.30;92.00;;;;;;5011159;28;20018;-51
2023/05/18 06:25:23;;;;;;;12.07;2.47;;;15.50;91.50;;;;;;5010566;28;20026;-50
2023/05/18 06:27:49;;;;;;;10.60;2.45;;;15.70;91.60;;;;;;5010887;28;20032;-50
2023/05/18 06:30:14;;;;;;;7.60;2.08;;;16.00;91.00;;;;;;5011271;28;20088;-48
2023/05/18 06:32:40;;;;;;;9.77;2.72;;;16.00;90.80;;;;;;5009722;28;20061;-47
2023/05/18 06:35:06;;;;;;;5.93;2.03;;;16.50;90.30;;;;;;5014400;28;20117;-50
2023/05/18 06:37:32;;;;;;;11.02;2.17;;;16.70;90.00;;;;;;5014517;28;20026;-52
2023/05/18 06:39:58;;;;;;;7.32;2.42;;;16.70;89.30;;;;;;5014491;28;20080;-48
2023/05/18 06:42:23;;;;;;;8.02;1.92;;;16.20;89.90;;;;;;5014381;28;20105;-47
2023/05/18 06:44:52;;;;;;;8.73;2.25;;;16.30;90.40;;;;;;5014621;28;20092;-49
2023/05/18 06:47:18;;;;;;;8.57;1.83;;;16.70;90.10;;;;;;5014852;28;20546;-52
2023/05/18 06:49:43;;;;;;;8.63;2.50;;;17.20;89.20;;;;;;5014119;28;20108;-48
2023/05/18 06:52:09;;;;;;;7.07;2.45;;;17.50;88.10;;;;;;5014230;28;20440;-52
2023/05/18 06:54:36;;;;;;;4.63;1.95;;;17.70;88.30;;;;;;5014621;28;20022;-50
2023/05/18 06:57:01;;;;;;;6.00;1.98;;;18.00;87.10;;;;;;5014506;28;20386;-49
2023/05/18 06:59:27;;;;;;;6.95;1.77;;;18.20;84.20;;;;;;5013780;28;20040;-51
2023/05/18 07:01:52;;;;;;;4.72;1.58;;;18.20;85.10;;;;;;5013085;28;20113;-49
2023/05/18 07:04:18;;;;;;;6.68;1.67;;;18.20;85.70;;;;;;5014043;28;20501;-48
2023/05/18 07:06:45;;;;;;;5.82;1.77;;;18.90;84.80;;;;;;5013141;28;20028;-47
2023/05/18 07:09:10;;;;;;;5.43;2.30;;;19.20;82.90;;;;;;5013705;28;20029;-50
2023/05/18 07:11:36;;;;;;;5.70;1.92;;;19.40;80.70;;;;;;5013797;28;20041;-47
2023/05/18 07:14:01;;;;;;;6.15;2.55;;;19.40;81.70;;;;;;5014051;28;20498;-49
2023/05/18 07:16:27;;;;;;;4.85;1.85;;;18.70;81.70;;;;;;5014380;28;20030;-48
2023/05/18 07:18:52;;;;;;;3.35;1.85;;;18.30;82.10;;;;;;5013444;28;20061;-52
2023/05/18 07:21:18;;;;;;;5.22;2.22;;;18.30;83.80;;;;;;5013628;28;20079;-49
2023/05/18 07:23:43;;;;;;;11.00;2.70;;;18.70;83.00;;;;;;5014087;28;20418;-50
2023/05/18 07:26:10;;;;;;;10.98;2.70;;;18.30;82.50;;;;;;5014006;28;20440;-50
2023/05/18 07:28:37;;;;;;;6.43;2.05;;;17.90;83.40;;;;;;5013391;28;20033;-47
2023/05/18 07:31:03;;;;;;;5.15;2.42;;;18.00;83.70;;;;;;5013870;28;20375;-48
2023/05/18 07:33:28;;;;;;;6.28;2.40;;;18.20;83.20;;;;;;5013401;28;20101;-48
2023/05/18 07:35:54;;;;;;;6.63;2.03;;;18.10;83.50;;;;;;5012508;28;20072;-50
2023/05/18 07:38:20;;;;;;;5.22;2.10;;;18.00;83.60;;;;;;5013411;28;20025;-51
2023/05/18 07:40:45;;;;;;;12.88;2.25;;;18.20;83.30;;;;;;5013694;28;20029;-48
2023/05/18 07:43:11;;;;;;;10.95;1.90;;;18.60;83.80;;;;;;5013504;28;20106;-53
2023/05/18 07:45:36;;;;;;;10.50;2.60;;;19.10;82.90;;;;;;5013114;28;20022;-49
2023/05/18 07:48:02;;;;;;;9.07;1.88;;;19.10;82.20;;;;;;5012977;28;20026;-52
2023/05/18 07:50:28;;;;;;;9.30;2.78;;;19.50;80.80;;;;;;5013460;28;20049;-49
2023/05/18 07:52:54;;;;;;;5.20;1.92;;;19.30;80.30;;;;;;5012945;28;20385;-48
2023/05/18 07:55:20;;;;;;;5.53;2.13;;;18.90;81.20;;;;;;5013198;28;20108;-52
2023/05/18 07:57:46;;;;;;;6.63;2.60;;;18.70;81.60;;;;;;5012023;28;20494;-53
2023/05/18 08:00:12;;;;;;;7.57;1.80;;;19.40;80.80;;;;;;5012200;28;20088;-49
2023/05/18 08:02:37;;;;;;;7.43;2.08;;;19.30;80.70;;;;;;5012794;28;20058;-48
2023/05/18 08:05:03;;;;;;;12.75;2.60;;;19.40;79.50;;;;;;5011834;28;20064;-49
2023/05/18 08:07:31;;;;;;;6.60;1.77;;;19.40;80.60;;;;;;5011880;28;20033;-49
2023/05/18 08:09:57;;;;;;;14.45;2.17;;;19.70;80.30;;;;;;5011068;28;20025;-52
2023/05/18 08:12:23;;;;;;;7.28;2.25;;;19.70;79.20;;;;;;5011403;28;20181;-49
2023/05/18 08:14:49;;;;;;;6.80;2.20;;;19.50;79.50;;;;;;5012827;28;20134;-47
2023/05/18 08:17:14;;;;;;;7.65;2.25;;;19.30;80.50;;;;;;5012806;28;20034;-49
2023/05/18 08:19:40;;;;;;;6.05;2.20;;;19.10;79.80;;;;;;5011280;28;20100;-48
2023/05/18 08:22:06;;;;;;;10.10;2.90;;;18.30;81.30;;;;;;5012646;28;20014;-51
2023/05/18 08:24:32;;;;;;;7.18;2.00;;;18.60;82.50;;;;;;5012666;28;20026;-50
2023/05/18 08:26:58;;;;;;;8.98;2.45;;;18.60;82.60;;;;;;4997194;28;20029;-48
2023/05/18 08:29:24;;;;;;;13.73;2.53;;;18.30;83.40;;;;;;4999437;28;20478;-50
2023/05/18 08:31:50;;;;;;;6.25;2.70;;;18.00;83.20;;;;;;5017365;28;20470;-47
2023/05/18 08:34:15;;;;;;;5.95;1.95;;;17.60;83.50;;;;;;5012374;28;20106;-49
2023/05/18 08:36:44;;;;;;;9.00;2.17;;;17.40;84.60;;;;;;4993142;28;20497;-46
2023/05/18 08:39:10;;;;;;;7.70;2.83;;;17.00;86.70;;;;;;4992338;28;20475;-51
2023/05/18 08:41:42;;;;;;;4.45;2.80;;;17.10;86.10;;;;;;4992300;28;20045;-49
2023/05/18 08:44:20;;;;;;;9.43;2.33;;;17.10;84.90;;;;;;4992233;28;20379;-50
2023/05/18 08:46:49;;;;;;;5.35;2.35;;;17.30;86.50;;;;;;4995001;28;20022;-47
2023/05/18 08:49:17;;;;;;;5.70;2.40;;;17.30;85.60;;;;;;5009269;28;20033;-47
2023/05/18 08:51:47;;;;;;;6.20;2.03;;;17.40;84.70;;;;;;5011567;28;20025;-49
2023/05/18 08:54:19;;;;;;;9.32;2.55;;;17.00;86.70;;;;;;5012028;28;20060;-50
2023/05/18 08:56:45;;;;;;;8.93;2.42;;;17.00;85.90;;;;;;4991858;28;20442;-48
2023/05/18 08:59:13;;;;;;;5.72;1.90;;;17.40;86.60;;;;;;4990779;28;20022;-48
2023/05/18 09:01:39;;;;;;;8.50;2.38;;;17.40;86.30;;;;;;4992083;28;20033;-51
2023/05/18 09:04:05;;;;;;;12.32;2.28;;;17.50;86.10;;;;;;5019210;28;20037;-48
2023/05/18 09:06:33;;;;;;;7.00;2.25;;;17.00;86.30;;;;;;5012063;28;20482;-49
2023/05/18 09:09:03;;;;;;;12.90;2.42;;;17.00;85.80;;;;;;5011605;28;20492;-49
2023/05/18 09:11:30;;;;;;;6.68;2.25;;;17.00;86.30;;;;;;5011402;28;20326;-50
2023/05/18 09:13:55;;;;;;;11.75;2.83;;;16.90;86.50;;;;;;5011825;28;20014;-49
2023/05/18 09:16:21;;;;;;;9.15;2.75;;;17.00;86.00;;;;;;5011896;28;20109;-48
2023/05/18 09:18:46;;;;;;;6.65;2.15;;;17.00;85.10;;;;;;4997336;28;20321;-47
2023/05/18 09:21:12;;;;;;;5.93;2.28;;;16.80;85.90;;;;;;4990981;28;20022;-47
2023/05/18 09:23:39;;;;;;;8.75;2.25;;;16.60;85.60;;;;;;5010646;28;20029;-52
2023/05/18 09:26:07;;;;;;;11.13;2.53;;;16.70;86.50;;;;;;5011378;28;20168;-47
2023/05/18 09:28:36;;;;;;;8.20;2.13;;;16.60;86.10;;;;;;5011343;28;20025;-48
2023/05/18 09:31:03;;;;;;;8.88;2.47;;;16.70;86.60;;;;;;5011093;28;20018;-49
2023/05/18 09:33:35;;;;;;;7.68;1.98;;;16.90;86.20;;;;;;5008288;28;20049;-50
2023/05/18 09:36:03;;;;;;;11.00;2.80;;;17.10;87.30;;;;;;5011592;28;20025;-49
2023/05/18 09:38:28;;;;;;;11.98;2.83;;;17.40;86.40;;;;;;5002551;28;20037;-50
2023/05/18 09:40:54;;;;;;;9.80;2.38;;;17.50;84.20;;;;;;4991807;28;20030;-48
2023/05/18 09:43:20;;;;;;;7.50;2.05;;;17.40;84.20;;;;;;4991505;28;20490;-49
2023/05/18 09:45:48;;;;;;;7.15;2.20;;;17.40;84.60;;;;;;4990463;28;20022;-51
2023/05/18 09:48:14;;;;;;;9.93;1.83;;;17.50;83.40;;;;;;5004249;28;20038;-50
2023/05/18 09:50:41;;;;;;;8.70;2.75;;;17.30;83.50;;;;;;5011303;28;20504;-49
2023/05/18 09:53:08;;;;;;;7.60;2.00;;;17.20;83.40;;;;;;5009686;28;20025;-50
2023/05/18 09:55:38;;;;;;;7.57;2.03;;;17.00;84.70;;;;;;5011471;28;20033;-49
2023/05/18 09:58:06;;;;;;;14.68;2.28;;;16.90;85.00;;;;;;5011175;28;20026;-49
2023/05/18 10:00:35;;;;;;;7.28;2.60;;;16.90;85.10;;;;;;5011350;28;20049;-49
2023/05/18 10:03:02;;;;;;;8.75;2.10;;;16.70;85.20;;;;;;5011184;28;20022;-50
2023/05/18 10:05:32;;;;;;;28.83;17.05;;;16.70;84.00;;;;;;5008066;28;20022;-50
2023/05/18 10:07:58;;;;;;;31.10;16.23;;;16.90;84.70;;;;;;5005495;28;20446;-52
2023/05/18 10:10:26;;;;;;;10.55;2.45;;;16.70;84.80;;;;;;5015216;28;20393;-49
2023/05/18 10:12:54;;;;;;;11.70;2.63;;;16.50;85.50;;;;;;5014966;28;20461;-46
2023/05/18 10:15:22;;;;;;;7.53;2.10;;;16.40;84.50;;;;;;5014820;28;20092;-53
2023/05/18 10:17:49;;;;;;;8.13;2.35;;;16.10;84.90;;;;;;5015124;28;20034;-48
2023/05/18 10:20:19;;;;;;;11.00;2.38;;;16.10;85.80;;;;;;5014956;28;20026;-46
2023/05/18 10:22:47;;;;;;;7.57;2.28;;;16.00;86.70;;;;;;5014645;28;20394;-46
2023/05/18 10:25:18;;;;;;;9.27;2.58;;;16.30;84.90;;;;;;5013372;28;20494;-49
2023/05/18 10:27:45;;;;;;;6.38;2.00;;;16.40;84.70;;;;;;5014859;28;20037;-51
2023/05/18 10:30:12;;;;;;;7.63;2.08;;;16.50;85.90;;;;;;5010818;28;20026;-47
2023/05/18 10:32:39;;;;;;;6.00;1.63;;;16.60;83.80;;;;;;4995190;28;20029;-50
2023/05/18 10:35:06;;;;;;;9.45;2.33;;;16.60;83.70;;;;;;4995223;28;20053;-53
2023/05/18 10:37:34;;;;;;;5.53;2.03;;;16.70;84.90;;;;;;5005430;28;20037;-51
2023/05/18 10:40:01;;;;;;;4.93;2.17;;;16.90;85.40;;;;;;5014077;28;20022;-48
2023/05/18 10:42:29;;;;;;;7.10;2.40;;;17.00;83.40;;;;;;5014261;28;20057;-49
2023/05/18 10:44:56;;;;;;;6.50;2.00;;;17.10;83.30;;;;;;5014299;28;20049;-53
2023/05/18 10:47:24;;;;;;;6.65;2.20;;;17.20;84.60;;;;;;4997607;28;20042;-49
2023/05/18 10:49:51;;;;;;;10.63;3.35;;;17.20;83.50;;;;;;5007634;28;20116;-52
2023/05/18 10:52:17;;;;;;;7.53;1.95;;;17.30;83.20;;;;;;4994349;28;20100;-50
2023/05/18 10:54:43;;;;;;;7.18;1.85;;;17.10;83.70;;;;;;5008337;28;20386;-51
2023/05/18 10:57:15;;;;;;;5.65;2.00;;;16.90;84.20;;;;;;5012307;28;20022;-51
2023/05/18 10:59:42;;;;;;;10.48;2.13;;;16.70;84.20;;;;;;5013955;28;20520;-49
2023/05/18 11:02:11;;;;;;;7.47;2.33;;;16.60;82.60;;;;;;4999923;28;20034;-50
2023/05/18 11:04:39;;;;;;;4.70;1.98;;;16.70;84.10;;;;;;4994481;28;20058;-52
2023/05/18 11:07:09;;;;;;;6.00;2.00;;;16.90;85.30;;;;;;4994871;28;20080;-51
2023/05/18 11:09:35;;;;;;;17.20;10.77;;;17.00;83.30;;;;;;4994211;28;20053;-51
2023/05/18 11:12:00;;;;;;;11.10;4.35;;;16.90;82.90;;;;;;4994365;28;20030;-54
2023/05/18 11:14:31;;;;;;;43.45;20.10;;;16.90;83.10;;;;;;4994538;28;20026;-51
2023/05/18 11:17:17;;;;;;;12.88;2.72;;;16.70;81.40;;;;;;5011897;28;20045;-49
2023/05/18 11:20:08;;;;;;;8.13;2.50;;;16.90;84.00;;;;;;5013291;22;20074;-45
2023/05/18 11:22:55;;;;;;;5.25;2.58;;;16.90;81.90;;;;;;4985383;28;20798;-38
2023/05/18 11:25:27;;;;;;;9.15;2.30;;;16.80;82.00;;;;;;4973785;28;20514;-44
2023/05/18 11:28:04;;;;;;;8.65;2.70;;;16.80;80.60;;;;;;4981680;28;20033;-41
2023/05/18 11:30:32;;;;;;;10.73;2.22;;;16.90;81.20;;;;;;4974843;28;20507;-41
2023/05/18 11:33:39;;;;;;;6.68;2.00;;;17.00;81.60;;;;;;4992966;28;20108;-43
2023/05/18 11:36:10;;;;;;;8.55;2.20;;;17.00;83.90;;;;;;4986042;28;20491;-41
2023/05/18 11:38:52;;;;;;;8.55;2.20;;;16.70;84.00;;;;;;4992484;28;20113;-44
2023/05/18 11:41:35;;;;;;;6.03;2.92;;;16.50;84.80;;;;;;4995319;28;20232;-43
2023/05/18 11:44:16;;;;;;;7.47;2.08;;;16.60;85.60;;;;;;4995210;28;20053;-43
2023/05/18 11:47:02;;;;;;;12.50;2.90;;;16.90;84.80;;;;;;4990776;28;20027;-45
2023/05/18 11:49:30;;;;;;;8.20;2.20;;;16.90;84.20;;;;;;4974643;28;20027;-44
2023/05/18 11:52:00;;;;;;;8.10;2.58;;;17.10;84.30;;;;;;4992781;28;20026;-43
2023/05/18 11:54:25;;;;;;;4.45;1.98;;;17.10;81.80;;;;;;4994476;28;20030;-43
2023/05/18 11:56:52;;;;;;;7.70;2.15;;;17.00;82.00;;;;;;4993211;28;20078;-44
2023/05/18 11:59:47;;;;;;;8.43;2.53;;;16.90;80.40;;;;;;4994233;28;20048;-42
2023/05/18 12:02:23;;;;;;;5.88;2.10;;;16.90;81.20;;;;;;4994628;28;20027;-43
2023/05/18 12:04:52;;;;;;;8.18;2.60;;;16.90;81.00;;;;;;4994005;28;20406;-43
2023/05/18 12:07:18;;;;;;;13.60;3.08;;;17.10;83.00;;;;;;4994548;28;20391;-42
2023/05/18 12:09:45;;;;;;;7.97;2.53;;;17.20;80.30;;;;;;4993793;28;20031;-43
2023/05/18 12:12:12;;;;;;;6.00;2.92;;;17.20;80.80;;;;;;4994120;28;20029;-43
2023/05/18 12:14:41;;;;;;;4.43;1.83;;;17.20;80.10;;;;;;4994293;28;20037;-45
2023/05/18 12:17:07;;;;;;;8.60;2.40;;;17.30;79.80;;;;;;4994389;28;20101;-47
2023/05/18 12:19:51;;;;;;;7.25;2.42;;;17.40;80.70;;;;;;4993720;28;20037;-43
2023/05/18 12:22:16;;;;;;;6.43;2.17;;;17.30;80.10;;;;;;4993620;28;20037;-43
2023/05/18 12:24:43;;;;;;;8.43;2.92;;;17.30;80.50;;;;;;4993691;28;20458;-44
2023/05/18 12:27:11;;;;;;;9.13;2.10;;;17.20;79.80;;;;;;4994275;28;20720;-43
2023/05/18 12:29:38;;;;;;;8.07;2.15;;;17.30;79.70;;;;;;4993384;28;20085;-46
2023/05/18 12:32:11;;;;;;;7.85;2.10;;;17.40;80.90;;;;;;4990946;28;20022;-48
2023/05/18 12:34:38;;;;;;;5.88;2.05;;;17.40;78.40;;;;;;4993317;28;20521;-46
2023/05/18 12:37:05;;;;;;;4.53;2.28;;;17.50;78.50;;;;;;4993641;28;20023;-44
2023/05/18 12:39:31;;;;;;;6.35;1.80;;;17.50;79.20;;;;;;4991893;28;20052;-48
2023/05/18 12:42:13;;;;;;;4.82;1.67;;;17.50;78.40;;;;;;4992884;28;20033;-44
2023/05/18 12:44:40;;;;;;;7.13;1.92;;;17.60;79.50;;;;;;4993370;28;20422;-43
2023/05/18 12:47:06;;;;;;;10.02;2.70;;;17.60;81.10;;;;;;4993448;28;20026;-47
2023/05/18 12:49:37;;;;;;;6.28;1.73;;;17.80;79.90;;;;;;4991373;28;20079;-49
2023/05/18 12:52:09;;;;;;;5.13;2.00;;;17.80;80.20;;;;;;4993503;28;20027;-45